Carisio -Volopuro-

IT-0770 · Piemont, Włochy

Historia METAR IT-0770 · Carisio -Volopuro-

Poniżej widzisz METAR-y z ostatnich kilku dni. Wybierz rok, aby przeglądać starsze METAR-y, począwszy od roku 2007.

28 maja 2024

Czas Kod Pogoda Temp. Widoczność Sufit Wiatr METAR/SPECI
11:55
V
22 °C 10 km+ - 150° 150° 3 kt METAR LIMN 280955Z 15003KT 9999 SCT030 22/15 Q1015 RMK SCT VIS MIN 9999 BLU
10:55
V
21 °C 10 km+ - 160° 160° 2 kt METAR LIMN 280855Z 16002KT CAVOK 21/13 Q1015 RMK SKC VIS MIN 9999 BLU
09:55
V
20 °C 10 km+ - 310° 310° 2 kt METAR LIMN 280755Z 31002KT CAVOK 20/13 Q1015
08:55
V
18 °C 10 km+ - 030° 030° 3 kt METAR LIMN 280655Z 03003KT CAVOK 18/14 Q1015
07:55
V
16 °C 10 km+ - 010° 010° 4 kt METAR LIMN 280555Z 01004KT CAVOK 16/14 Q1015 RMK SKC VIS MIN 9999 BLU
06:55
V
13 °C 10 km+ - 340° 340° 3 kt METAR LIMN 280455Z 34003KT CAVOK 13/12 Q1015

27 maja 2024

Czas Kod Pogoda Temp. Widoczność Sufit Wiatr METAR/SPECI
19:55
V
20 °C 10 km+ - 350° 350° 4 kt METAR LIMN 271755Z 35004KT 9999 FEW040 20/15 Q1016
18:55
V
20 °C 10 km+ - 350° 350° 4 kt METAR LIMN 271655Z 35004KT 9999 FEW040 20/16 Q1016
17:55
V
21 °C 10 km+ - 010° 010° 3 kt METAR LIMN 271555Z 01003KT 9999 FEW040 21/16 Q1017 RMK OVC BKN080 VIS MIN 9999 BLU
16:55
V
22 °C 10 km+ - 350° 350° 4 kt METAR LIMN 271455Z 35004KT 9999 SCT040 22/15 Q1017
15:55
V
22 °C 10 km+ - 020° 020° 7 kt METAR LIMN 271355Z 02007KT 9999 FEW040 22/14 Q1017
14:55
V
20 °C 10 km+ - 010° 010° 8 kt METAR LIMN 271255Z 01008KT 9999 FEW040 20/16 Q1018
13:55
V
20 °C 10 km+ - 360° 360° 6 kt METAR LIMN 271155Z 36006KT 9999 RA FEW040 20/15 Q1018 RMK OVC SCT080 BKN100 VIS MIN 9999 BLU
12:55
V
20 °C 10 km+ - 320° 320° 5 kt METAR LIMN 271055Z 32005KT 290V360 9999 FEW040 20/15 Q1018
11:55
V
20 °C 10 km+ - 330° 330° 5 kt METAR LIMN 270955Z 33005KT 9999 FEW040 20/14 Q1018
10:55
V
20 °C 10 km+ - 360° 360° 0 kt METAR LIMN 270855Z /////KT 9999 -RA SCT040 20/15 Q1018
09:55
V
20 °C 10 km+ - 360° 360° 0 kt METAR LIMN 270755Z /////KT 9999 FEW040 20/15 Q1019
08:55
V
18 °C 10 km+ - 360° 360° 0 kt METAR LIMN 270655Z /////KT 9999 SCT040 18/14 Q1019
07:55
V
16 °C 10 km+ - 360° 360° 0 kt METAR LIMN 270555Z /////KT 9999 SCT040 SCT060 16/14 Q1019
06:55
V
16 °C 10 km+ 6.000 ft 360° 360° 0 kt METAR LIMN 270455Z 00000KT 9999 -RA FEW030 SCT040 BKN060 16/14 Q1018
Zgłoś zmianę